createdAt,value
2022-09-02T00:00:23.192Z,75.22
2022-09-02T00:01:23.163Z,75.22
2022-09-02T00:02:24.074Z,75.49
2022-09-02T00:03:23.527Z,75.28
2022-09-02T00:04:23.130Z,75.22
2022-09-02T00:05:23.133Z,75.22
2022-09-02T00:06:23.179Z,75.22
2022-09-02T00:07:23.099Z,75.18
2022-09-02T00:08:23.085Z,75.42
2022-09-02T00:09:23.069Z,75.18
2022-09-02T00:10:23.085Z,75.42
2022-09-02T00:11:23.057Z,75.73
2022-09-02T00:12:23.041Z,75.59
2022-09-02T00:13:23.026Z,75.49
2022-09-02T00:14:23.019Z,75.12
2022-09-02T00:15:23.019Z,75.38
2022-09-02T00:16:23.030Z,75.42
2022-09-02T00:17:22.981Z,75.62
2022-09-02T00:18:22.978Z,75.93
2022-09-02T00:19:22.965Z,76.13
2022-09-02T00:20:22.968Z,75.62
2022-09-02T00:21:22.952Z,75.62
2022-09-02T00:22:22.929Z,75.93
2022-09-02T00:23:22.917Z,75.82
2022-09-02T00:24:24.030Z,76.03
2022-09-02T00:25:22.895Z,76.13
2022-09-02T00:26:22.885Z,75.62
2022-09-02T00:27:22.872Z,75.52
2022-09-02T00:28:22.866Z,75.42
2022-09-02T00:29:22.887Z,75.73
2022-09-02T00:30:22.839Z,75.42
2022-09-02T00:31:22.894Z,75.52
2022-09-02T00:32:22.814Z,75.52
2022-09-02T00:33:22.883Z,75.93
2022-09-02T00:34:22.796Z,75.82
2022-09-02T00:35:22.800Z,75.82
2022-09-02T00:36:22.771Z,75.42
2022-09-02T00:37:22.760Z,75.73
2022-09-02T00:38:22.773Z,75.22
2022-09-02T00:39:22.737Z,75.22
2022-09-02T00:40:22.818Z,75.49
2022-09-02T00:41:22.721Z,75.59
2022-09-02T00:42:22.708Z,75.49
2022-09-02T00:43:22.798Z,75.62
2022-09-02T00:44:22.687Z,75.49
2022-09-02T00:45:22.716Z,75.52
2022-09-02T00:46:22.668Z,75.69
2022-09-02T00:47:22.651Z,74.37
2022-09-02T00:48:22.642Z,74.57
2022-09-02T00:49:22.631Z,74.57
2022-09-02T00:50:22.634Z,75.08
2022-09-02T00:51:22.605Z,75.22
2022-09-02T00:52:22.595Z,75.73
2022-09-02T00:53:22.710Z,75.62
2022-09-02T00:54:22.573Z,75.76
2022-09-02T00:55:22.692Z,75.93
2022-09-02T00:56:22.551Z,75.93
2022-09-02T00:57:22.544Z,76.13
2022-09-02T00:58:22.535Z,75.73
2022-09-02T00:59:22.536Z,75.52
2022-09-02T01:00:22.519Z,75.79
2022-09-02T01:01:22.797Z,75.73
2022-09-02T01:02:22.597Z,75.28
2022-09-02T01:03:22.643Z,75.59
2022-09-02T01:04:22.465Z,75.69
2022-09-02T01:05:22.696Z,75.79
2022-09-02T01:06:22.642Z,74.68
2022-09-02T01:07:22.429Z,74.17
2022-09-02T01:08:22.438Z,75.69
2022-09-02T01:09:22.408Z,75.59
2022-09-02T01:10:22.494Z,75.62
2022-09-02T01:11:22.384Z,75.73
2022-09-02T01:12:22.373Z,75.82
2022-09-02T01:13:22.531Z,75.76
2022-09-02T01:14:22.353Z,75.73
2022-09-02T01:15:22.335Z,75.52
2022-09-02T01:16:22.374Z,75.93
2022-09-02T01:17:22.318Z,75.93
2022-09-02T01:18:22.328Z,75.52
2022-09-02T01:19:22.296Z,75.42
2022-09-02T01:20:24.498Z,75.22
2022-09-02T01:21:22.271Z,75.22
2022-09-02T01:22:22.261Z,75.42
2022-09-02T01:23:22.584Z,75.42
2022-09-02T01:24:22.244Z,75.52
2022-09-02T01:25:22.231Z,75.22
2022-09-02T01:26:22.255Z,75.22
2022-09-02T01:27:22.362Z,75.32
2022-09-02T01:28:22.194Z,75.01
2022-09-02T01:29:22.183Z,75.38
2022-09-02T01:30:22.177Z,75.69
2022-09-02T01:31:22.206Z,75.79
2022-09-02T01:32:22.164Z,75.52
2022-09-02T01:33:22.163Z,75.12
2022-09-02T01:34:22.129Z,74.77
2022-09-02T01:35:22.135Z,73.66
2022-09-02T01:36:22.132Z,74.27
2022-09-02T01:37:22.094Z,74.07
2022-09-02T01:38:22.084Z,74.37
2022-09-02T01:39:22.069Z,74.07
2022-09-02T01:40:22.573Z,74.17
2022-09-02T01:41:22.065Z,74.17
2022-09-02T01:42:22.393Z,74.57
2022-09-02T01:43:22.083Z,73.76
2022-09-02T01:44:22.337Z,74.17
2022-09-02T01:45:22.021Z,74.71
2022-09-02T01:46:22.055Z,75.62
2022-09-02T01:47:21.984Z,75.42
2022-09-02T01:48:22.123Z,75.46
2022-09-02T01:49:21.965Z,75.62
2022-09-02T01:50:21.974Z,75.62
2022-09-02T01:51:21.944Z,75.32
2022-09-02T01:52:21.928Z,75.22
2022-09-02T01:53:22.054Z,75.32
2022-09-02T01:54:21.903Z,75.62
2022-09-02T01:55:23.541Z,75.22
2022-09-02T01:56:21.888Z,75.12
2022-09-02T01:57:21.871Z,75.42
2022-09-02T01:58:21.859Z,75.22
2022-09-02T01:59:21.850Z,75.52
2022-09-02T02:00:21.842Z,74.00
2022-09-02T02:01:22.529Z,74.00
2022-09-02T02:02:21.911Z,75.52
2022-09-02T02:03:21.927Z,75.62
2022-09-02T02:04:21.796Z,75.22
2022-09-02T02:05:21.779Z,75.52
2022-09-02T02:06:21.800Z,75.42
2022-09-02T02:07:21.761Z,75.73
2022-09-02T02:08:21.751Z,75.62
2022-09-02T02:09:21.734Z,75.56
2022-09-02T02:10:21.733Z,75.66
2022-09-02T02:11:21.732Z,75.96
2022-09-02T02:12:21.707Z,75.96
2022-09-02T02:13:21.843Z,76.06
2022-09-02T02:14:21.769Z,75.86
2022-09-02T02:15:21.670Z,76.31
2022-09-02T02:16:21.869Z,76.37
2022-09-02T02:17:21.670Z,76.06
2022-09-02T02:18:21.638Z,76.27
2022-09-02T02:19:21.623Z,76.37
2022-09-02T02:20:34.378Z,75.76
2022-09-02T02:21:21.606Z,76.27
2022-09-02T02:22:21.593Z,76.37
2022-09-02T02:23:21.702Z,76.67
2022-09-02T02:24:21.610Z,76.37
2022-09-02T02:25:21.558Z,76.17
2022-09-02T02:26:21.545Z,75.86
2022-09-02T02:27:21.541Z,76.06
2022-09-02T02:28:21.525Z,75.96
2022-09-02T02:29:21.510Z,76.27
2022-09-02T02:30:24.142Z,76.37
2022-09-02T02:31:21.648Z,76.20
2022-09-02T02:32:21.478Z,76.06
2022-09-02T02:33:21.522Z,76.17
2022-09-02T02:34:21.456Z,76.57
2022-09-02T02:35:21.969Z,76.67
2022-09-02T02:36:21.445Z,77.18
2022-09-02T02:37:25.381Z,77.08
2022-09-02T02:38:21.446Z,77.18
2022-09-02T02:39:21.397Z,77.18
2022-09-02T02:40:21.460Z,77.18
2022-09-02T02:41:21.378Z,76.87
2022-09-02T02:42:21.387Z,76.98
2022-09-02T02:43:21.357Z,76.87
2022-09-02T02:44:21.358Z,76.81
2022-09-02T02:45:21.332Z,77.08
2022-09-02T02:46:21.375Z,76.81
2022-09-02T02:47:21.307Z,77.01
2022-09-02T02:48:21.301Z,77.42
2022-09-02T02:49:21.284Z,77.42
2022-09-02T02:50:21.311Z,77.22
2022-09-02T02:51:21.288Z,77.22
2022-09-02T02:52:21.252Z,77.83
2022-09-02T02:53:21.342Z,77.42
2022-09-02T02:54:21.231Z,77.97
2022-09-02T02:55:21.221Z,78.03
2022-09-02T02:56:21.207Z,77.97
2022-09-02T02:57:21.217Z,78.27
2022-09-02T02:58:21.185Z,78.57
2022-09-02T02:59:21.172Z,78.47
2022-09-02T03:00:21.162Z,78.98
2022-09-02T03:01:21.167Z,78.67
2022-09-02T03:02:21.277Z,78.67
2022-09-02T03:03:21.350Z,78.98
2022-09-02T03:04:21.114Z,79.08
2022-09-02T03:05:21.101Z,79.08
2022-09-02T03:06:21.911Z,78.81
2022-09-02T03:07:22.147Z,79.49
2022-09-02T03:08:21.104Z,79.38
2022-09-02T03:09:21.060Z,79.63
2022-09-02T03:10:21.046Z,79.79
2022-09-02T03:11:21.030Z,79.83
2022-09-02T03:12:21.060Z,80.24
2022-09-02T03:13:21.061Z,80.24
2022-09-02T03:14:21.003Z,80.54
2022-09-02T03:15:20.989Z,80.54
2022-09-02T03:16:21.085Z,80.54
2022-09-02T03:17:21.009Z,80.74
2022-09-02T03:18:20.980Z,80.84
2022-09-02T03:19:20.938Z,81.19
2022-09-02T03:20:21.044Z,81.19
2022-09-02T03:21:20.918Z,81.29
2022-09-02T03:22:20.915Z,81.09
2022-09-02T03:23:20.896Z,81.19
2022-09-02T03:24:20.891Z,81.29
2022-09-02T03:25:20.894Z,81.29
2022-09-02T03:26:20.871Z,81.39
2022-09-02T03:27:20.855Z,81.90
2022-09-02T03:28:20.845Z,81.70
2022-09-02T03:29:20.832Z,81.59
2022-09-02T03:30:21.769Z,81.79
2022-09-02T03:31:20.969Z,81.84
2022-09-02T03:32:20.811Z,81.70
2022-09-02T03:33:20.782Z,81.73
2022-09-02T03:34:20.802Z,82.14
2022-09-02T03:35:21.486Z,81.93
2022-09-02T03:36:20.747Z,82.24
2022-09-02T03:37:20.766Z,82.14
2022-09-02T03:38:20.732Z,82.65
2022-09-02T03:39:20.759Z,82.45
2022-09-02T03:40:20.765Z,82.85
2022-09-02T03:41:21.449Z,82.85
2022-09-02T03:42:20.684Z,83.36
2022-09-02T03:43:20.689Z,83.20
2022-09-02T03:44:20.666Z,82.95
2022-09-02T03:45:20.673Z,83.29
2022-09-02T03:46:20.723Z,83.76
2022-09-02T03:47:20.746Z,83.81
2022-09-02T03:48:20.637Z,83.91
2022-09-02T03:49:20.628Z,82.75
2022-09-02T03:50:20.623Z,83.81
2022-09-02T03:51:20.579Z,83.50
2022-09-02T03:52:20.572Z,83.60
2022-09-02T03:53:20.676Z,83.46
2022-09-02T03:54:20.568Z,83.40
2022-09-02T03:55:20.536Z,83.29
2022-09-02T03:56:21.590Z,83.91
2022-09-02T03:57:20.556Z,83.91
2022-09-02T03:58:21.036Z,83.91
2022-09-02T03:59:20.492Z,84.01
2022-09-02T04:00:20.483Z,83.60
2022-09-02T04:01:20.539Z,83.40
2022-09-02T04:02:20.660Z,83.50
2022-09-02T04:03:20.703Z,83.81
2022-09-02T04:04:22.834Z,83.81
2022-09-02T04:05:20.427Z,83.70
2022-09-02T04:06:20.411Z,84.01
2022-09-02T04:07:20.402Z,83.50
2022-09-02T04:08:20.405Z,83.81
2022-09-02T04:09:20.388Z,83.29
2022-09-02T04:10:20.367Z,84.01
2022-09-02T04:11:20.360Z,83.40
2022-09-02T04:12:20.344Z,83.09
2022-09-02T04:13:20.361Z,83.91
2022-09-02T04:14:20.321Z,83.36
2022-09-02T04:15:20.322Z,83.56
2022-09-02T04:16:20.467Z,83.15
2022-09-02T04:17:20.290Z,83.06
2022-09-02T04:18:20.296Z,82.85
2022-09-02T04:19:20.271Z,83.26
2022-09-02T04:20:20.261Z,82.95
2022-09-02T04:21:20.247Z,83.26
2022-09-02T04:22:22.136Z,83.06
2022-09-02T04:23:20.306Z,83.06
2022-09-02T04:24:20.218Z,82.75
2022-09-02T04:25:20.209Z,83.06
2022-09-02T04:26:21.188Z,82.75
2022-09-02T04:27:20.202Z,83.06
2022-09-02T04:28:20.236Z,83.36
2022-09-02T04:29:20.163Z,83.06
2022-09-02T04:30:20.193Z,82.54
2022-09-02T04:31:20.180Z,82.85
2022-09-02T04:32:20.123Z,83.20
2022-09-02T04:33:20.139Z,83.06
2022-09-02T04:34:20.113Z,82.85
2022-09-02T04:35:20.087Z,83.67
2022-09-02T04:36:20.096Z,82.75
2022-09-02T04:37:28.035Z,82.85
2022-09-02T04:38:20.058Z,83.46
2022-09-02T04:39:20.048Z,83.46
2022-09-02T04:40:20.101Z,83.15
2022-09-02T04:41:21.543Z,82.95
2022-09-02T04:42:20.019Z,82.95
2022-09-02T04:43:20.116Z,83.06
2022-09-02T04:44:19.993Z,82.85
2022-09-02T04:45:19.984Z,82.65
2022-09-02T04:46:29.730Z,83.26
2022-09-02T04:47:21.098Z,82.75
2022-09-02T04:48:19.954Z,82.85
2022-09-02T04:49:20.322Z,83.15
2022-09-02T04:50:19.933Z,82.75
2022-09-02T04:51:21.116Z,82.85
2022-09-02T04:52:19.900Z,83.32
2022-09-02T04:53:19.973Z,83.36
2022-09-02T04:54:19.881Z,82.40
2022-09-02T04:55:19.868Z,82.20
2022-09-02T04:56:19.871Z,82.04
2022-09-02T04:57:19.847Z,82.95
2022-09-02T04:58:19.846Z,82.65
2022-09-02T04:59:19.826Z,82.75
2022-09-02T05:00:19.869Z,82.31
2022-09-02T05:01:19.884Z,82.61
2022-09-02T05:02:19.946Z,82.61
2022-09-02T05:03:19.786Z,82.51
2022-09-02T05:04:19.765Z,82.00
2022-09-02T05:05:19.752Z,82.10
2022-09-02T05:06:19.962Z,82.10
2022-09-02T05:07:19.737Z,81.90
2022-09-02T05:08:19.742Z,81.90
2022-09-02T05:09:19.710Z,81.90
2022-09-02T05:10:19.695Z,81.70
2022-09-02T05:11:19.727Z,81.59
2022-09-02T05:12:19.670Z,82.00
2022-09-02T05:13:19.667Z,82.00
2022-09-02T05:14:19.650Z,81.90
2022-09-02T05:15:19.642Z,82.31
2022-09-02T05:16:19.727Z,82.45
2022-09-02T05:17:19.767Z,82.40
2022-09-02T05:18:19.609Z,82.40
2022-09-02T05:19:19.593Z,82.10
2022-09-02T05:20:19.627Z,82.10
2022-09-02T05:21:19.581Z,82.40
2022-09-02T05:22:19.561Z,82.95
2022-09-02T05:23:19.950Z,82.61
2022-09-02T05:24:23.256Z,82.20
2022-09-02T05:25:20.551Z,82.51
2022-09-02T05:26:19.510Z,82.51
2022-09-02T05:27:19.532Z,82.85
2022-09-02T05:28:19.491Z,83.12
2022-09-02T05:29:22.654Z,83.12
2022-09-02T05:30:19.471Z,82.61
2022-09-02T05:31:19.517Z,82.20
2022-09-02T05:32:19.445Z,82.20
2022-09-02T05:33:19.531Z,82.00
2022-09-02T05:34:19.538Z,82.61
2022-09-02T05:35:19.436Z,82.81
2022-09-02T05:36:19.400Z,82.26
2022-09-02T05:37:19.389Z,81.86
2022-09-02T05:38:19.439Z,81.66
2022-09-02T05:39:19.437Z,81.52
2022-09-02T05:40:22.568Z,80.80
2022-09-02T05:41:19.345Z,80.60
2022-09-02T05:42:19.329Z,80.36
2022-09-02T05:43:19.322Z,80.26
2022-09-02T05:44:19.329Z,79.96
2022-09-02T05:45:20.668Z,79.61
2022-09-02T05:46:19.361Z,79.55
2022-09-02T05:47:19.287Z,79.75
2022-09-02T05:48:19.265Z,79.72
2022-09-02T05:49:19.345Z,79.00
2022-09-02T05:50:19.263Z,79.51
2022-09-02T05:51:19.241Z,79.00
2022-09-02T05:52:19.230Z,78.26
2022-09-02T05:53:19.223Z,78.56
2022-09-02T05:54:19.288Z,78.26
2022-09-02T05:55:20.855Z,77.86
2022-09-02T05:56:19.176Z,77.86
2022-09-02T05:57:19.176Z,78.06
2022-09-02T05:58:19.172Z,77.34
2022-09-02T05:59:19.166Z,77.95
2022-09-02T06:00:19.145Z,77.95
2022-09-02T06:01:19.130Z,77.31
2022-09-02T06:02:19.214Z,77.21
2022-09-02T06:03:19.349Z,77.21
2022-09-02T06:04:19.127Z,77.17
2022-09-02T06:05:19.075Z,77.07
2022-09-02T06:06:19.214Z,76.40
2022-09-02T06:07:19.055Z,76.90
2022-09-02T06:08:19.044Z,77.51
2022-09-02T06:09:19.034Z,76.67
2022-09-02T06:10:21.112Z,76.06
2022-09-02T06:11:19.008Z,75.72
2022-09-02T06:12:19.023Z,75.52
2022-09-02T06:13:19.024Z,75.11
2022-09-02T06:14:18.974Z,74.00
2022-09-02T06:15:18.991Z,75.52
2022-09-02T06:16:19.019Z,75.31
2022-09-02T06:17:18.942Z,75.11
2022-09-02T06:18:18.930Z,74.91
2022-09-02T06:19:20.466Z,74.87
2022-09-02T06:20:21.291Z,74.27
2022-09-02T06:21:18.901Z,74.16
2022-09-02T06:22:18.932Z,74.23
2022-09-02T06:23:19.067Z,73.52
2022-09-02T06:24:18.866Z,73.79
2022-09-02T06:25:18.853Z,73.28
2022-09-02T06:26:18.882Z,72.78
2022-09-02T06:27:18.902Z,72.14
2022-09-02T06:28:18.816Z,71.60
2022-09-02T06:29:18.811Z,71.06
2022-09-02T06:30:18.875Z,70.66
2022-09-02T06:31:18.861Z,70.96
2022-09-02T06:32:18.779Z,71.00
2022-09-02T06:33:18.768Z,71.20
2022-09-02T06:34:18.753Z,71.94
2022-09-02T06:35:18.763Z,72.44
2022-09-02T06:36:18.724Z,71.73
2022-09-02T06:37:18.721Z,71.33
2022-09-02T06:38:18.710Z,68.65
2022-09-02T06:39:23.643Z,63.64
2022-09-02T06:40:18.736Z,61.54
2022-09-02T06:41:18.677Z,60.41
2022-09-02T06:42:18.661Z,61.00
2022-09-02T06:43:18.693Z,62.49
2022-09-02T06:44:20.323Z,63.32
2022-09-02T06:45:18.629Z,63.93
2022-09-02T06:46:19.603Z,65.30
2022-09-02T06:47:18.618Z,65.73
2022-09-02T06:48:18.602Z,66.17
2022-09-02T06:49:18.592Z,65.03
2022-09-02T06:50:18.599Z,64.03
2022-09-02T06:51:18.567Z,63.28
2022-09-02T06:52:18.551Z,58.06
2022-09-02T06:53:18.587Z,55.71
2022-09-02T06:54:20.499Z,51.79
2022-09-02T06:55:18.525Z,49.86
2022-09-02T06:56:18.509Z,49.04
2022-09-02T06:57:18.582Z,49.26
2022-09-02T06:58:18.477Z,48.25
2022-09-02T06:59:18.492Z,47.38
2022-09-02T07:00:18.484Z,46.79
2022-09-02T07:01:18.583Z,47.88
2022-09-02T07:02:18.449Z,46.05
2022-09-02T07:03:18.554Z,45.57
2022-09-02T07:04:18.419Z,44.43
2022-09-02T07:05:18.875Z,42.82
2022-09-02T07:06:18.400Z,42.07
2022-09-02T07:07:18.386Z,39.84
2022-09-02T07:08:18.383Z,39.74
2022-09-02T07:09:18.394Z,39.62
2022-09-02T07:10:18.357Z,40.96
2022-09-02T07:11:18.341Z,39.84
2022-09-02T07:12:18.332Z,39.50
2022-09-02T07:13:18.389Z,37.60
2022-09-02T07:14:18.335Z,37.19
2022-09-02T07:15:18.338Z,36.74
2022-09-02T07:16:18.477Z,36.70
2022-09-02T07:17:19.286Z,37.63
2022-09-02T07:18:18.364Z,38.92
2022-09-02T07:19:20.647Z,38.92
2022-09-02T07:20:19.040Z,39.54
2022-09-02T07:21:18.237Z,39.54
2022-09-02T07:22:18.891Z,38.74
2022-09-02T07:23:18.228Z,38.42
2022-09-02T07:24:18.221Z,37.58
2022-09-02T07:25:18.189Z,36.35
2022-09-02T07:26:18.214Z,35.91
2022-09-02T07:27:18.172Z,35.17
2022-09-02T07:28:18.163Z,33.26
2022-09-02T07:29:18.182Z,32.26
2022-09-02T07:30:18.135Z,32.96
2022-09-02T07:31:18.300Z,32.75
2022-09-02T07:32:18.121Z,32.65
2022-09-02T07:33:18.159Z,31.98
2022-09-02T07:34:18.093Z,33.48
2022-09-02T07:35:19.220Z,33.18
2022-09-02T07:36:18.102Z,33.17
2022-09-02T07:37:18.332Z,31.85
2022-09-02T07:38:18.054Z,31.34
2022-09-02T07:39:18.045Z,31.01
2022-09-02T07:40:18.124Z,30.91
2022-09-02T07:41:18.022Z,29.94
2022-09-02T07:42:18.049Z,30.87
2022-09-02T07:43:18.061Z,30.96
2022-09-02T07:44:18.034Z,31.66
2022-09-02T07:45:17.983Z,30.85
2022-09-02T07:46:18.004Z,32.08
2022-09-02T07:47:17.974Z,32.57
2022-09-02T07:48:17.974Z,31.64
2022-09-02T07:49:22.051Z,31.76
2022-09-02T07:50:21.016Z,31.46
2022-09-02T07:51:18.095Z,31.46
2022-09-02T07:52:18.022Z,30.54
2022-09-02T07:53:18.034Z,30.87
2022-09-02T07:54:18.636Z,32.91
2022-09-02T07:55:18.610Z,33.36
2022-09-02T07:56:17.893Z,35.10
2022-09-02T07:57:17.872Z,36.21
2022-09-02T07:58:17.845Z,37.74
2022-09-02T07:59:17.851Z,37.97
2022-09-02T08:00:17.848Z,38.03
2022-09-02T08:01:22.654Z,37.19
2022-09-02T08:02:18.924Z,36.91
2022-09-02T08:03:17.793Z,37.80
2022-09-02T08:04:17.885Z,36.57
2022-09-02T08:05:17.779Z,36.58
2022-09-02T08:06:17.764Z,37.38
2022-09-02T08:07:18.752Z,36.58
2022-09-02T08:08:17.735Z,36.04
2022-09-02T08:09:17.733Z,35.34
2022-09-02T08:10:17.733Z,34.52
2022-09-02T08:11:18.564Z,34.21
2022-09-02T08:12:20.191Z,34.11
2022-09-02T08:13:17.789Z,34.48
2022-09-02T08:14:17.677Z,32.76
2022-09-02T08:15:17.688Z,31.17
2022-09-02T08:16:17.703Z,31.48
2022-09-02T08:17:17.646Z,31.34
2022-09-02T08:18:21.608Z,31.17
2022-09-02T08:19:18.627Z,33.95
2022-09-02T08:20:19.944Z,33.62
2022-09-02T08:21:17.605Z,32.76
2022-09-02T08:22:17.609Z,31.25
2022-09-02T08:23:33.152Z,30.22
2022-09-02T08:24:18.610Z,29.87
2022-09-02T08:25:17.588Z,29.95
2022-09-02T08:26:17.581Z,30.41
2022-09-02T08:27:17.542Z,29.93
2022-09-02T08:28:17.658Z,30.76
2022-09-02T08:29:17.520Z,28.49
2022-09-02T08:30:17.550Z,28.79
2022-09-02T08:31:17.573Z,29.38
2022-09-02T08:32:17.577Z,29.51
2022-09-02T08:33:17.518Z,30.50
2022-09-02T08:34:17.472Z,29.77
2022-09-02T08:35:17.521Z,28.86
2022-09-02T08:36:17.450Z,28.76
2022-09-02T08:37:17.436Z,28.62
2022-09-02T08:38:17.473Z,27.15
2022-09-02T08:39:17.468Z,28.36
2022-09-02T08:40:18.178Z,28.45
2022-09-02T08:41:18.118Z,28.18
2022-09-02T08:42:17.424Z,28.68
2022-09-02T08:43:17.447Z,29.05
2022-09-02T08:44:17.375Z,28.55
2022-09-02T08:45:17.425Z,29.01
2022-09-02T08:46:17.397Z,30.44
2022-09-02T08:47:17.364Z,29.55
2022-09-02T08:48:17.331Z,30.65
2022-09-02T08:49:17.320Z,30.26
2022-09-02T08:50:17.321Z,30.18
2022-09-02T08:51:18.639Z,30.15
2022-09-02T08:52:17.933Z,29.60
2022-09-02T08:53:17.283Z,28.47
2022-09-02T08:54:17.275Z,28.05
2022-09-02T08:55:17.279Z,26.76
2022-09-02T08:56:17.252Z,25.29
2022-09-02T08:57:17.244Z,25.71
2022-09-02T08:58:17.471Z,27.21
2022-09-02T08:59:17.224Z,26.72
2022-09-02T09:00:17.231Z,26.66
2022-09-02T09:01:17.286Z,25.66
2022-09-02T09:02:17.784Z,24.37
2022-09-02T09:03:17.188Z,24.37
2022-09-02T09:04:17.200Z,24.72
2022-09-02T09:05:17.307Z,25.31
2022-09-02T09:06:17.186Z,24.49
2022-09-02T09:07:17.145Z,25.60
2022-09-02T09:08:21.455Z,26.86
2022-09-02T09:09:17.130Z,25.76
2022-09-02T09:10:17.117Z,24.58
2022-09-02T09:11:17.128Z,26.65
2022-09-02T09:12:17.100Z,27.17
2022-09-02T09:13:17.084Z,26.75
2022-09-02T09:14:17.078Z,25.83
2022-09-02T09:15:17.465Z,25.63
2022-09-02T09:16:17.179Z,25.16
2022-09-02T09:17:17.046Z,24.74
2022-09-02T09:18:17.038Z,24.74
2022-09-02T09:19:17.379Z,25.84
2022-09-02T09:20:17.023Z,26.79
2022-09-02T09:21:17.070Z,29.18
2022-09-02T09:22:16.999Z,29.32
2022-09-02T09:23:21.398Z,28.99
2022-09-02T09:24:18.017Z,27.59
2022-09-02T09:25:16.976Z,26.89
2022-09-02T09:26:16.961Z,27.13
2022-09-02T09:27:16.955Z,25.54
2022-09-02T09:28:16.944Z,25.15
2022-09-02T09:29:16.932Z,25.42
2022-09-02T09:30:17.051Z,23.82
2022-09-02T09:31:16.967Z,24.77
2022-09-02T09:32:16.906Z,27.08
2022-09-02T09:33:16.893Z,27.19
2022-09-02T09:34:16.894Z,26.59
2022-09-02T09:35:16.907Z,25.19
2022-09-02T09:36:16.900Z,25.54
2022-09-02T09:37:16.858Z,25.24
2022-09-02T09:38:16.845Z,24.62
2022-09-02T09:39:16.841Z,24.13
2022-09-02T09:40:16.999Z,24.21
2022-09-02T09:41:16.891Z,24.03
2022-09-02T09:42:17.000Z,24.32
2022-09-02T09:43:16.961Z,23.45
2022-09-02T09:44:16.824Z,23.75
2022-09-02T09:45:16.784Z,24.21
2022-09-02T09:46:16.866Z,22.67
2022-09-02T09:47:18.149Z,22.45
2022-09-02T09:48:16.787Z,22.92
2022-09-02T09:49:16.765Z,22.67
2022-09-02T09:50:16.798Z,23.17
2022-09-02T09:51:16.963Z,24.16
2022-09-02T09:52:16.726Z,23.93
2022-09-02T09:53:16.716Z,23.17
2022-09-02T09:54:16.704Z,24.09
2022-09-02T09:55:22.770Z,25.23
2022-09-02T09:56:17.689Z,27.05
2022-09-02T09:57:16.674Z,28.68
2022-09-02T09:58:16.724Z,30.72
2022-09-02T09:59:20.327Z,31.99
2022-09-02T10:00:16.689Z,34.10
2022-09-02T10:01:16.712Z,33.56
2022-09-02T10:02:16.705Z,31.20
2022-09-02T10:03:19.606Z,30.05
2022-09-02T10:04:39.342Z,28.11
2022-09-02T10:05:17.588Z,27.29
2022-09-02T10:06:16.601Z,27.18
2022-09-02T10:07:16.569Z,26.57
2022-09-02T10:08:16.584Z,25.30
2022-09-02T10:09:16.571Z,25.88
2022-09-02T10:10:16.600Z,26.09
2022-09-02T10:11:16.546Z,25.60
2022-09-02T10:12:16.549Z,27.12
2022-09-02T10:13:16.515Z,29.10
2022-09-02T10:14:16.508Z,30.49
2022-09-02T10:15:16.511Z,33.54
2022-09-02T10:16:16.627Z,34.28
2022-09-02T10:17:16.468Z,32.68
2022-09-02T10:18:16.467Z,33.41
2022-09-02T10:19:24.112Z,33.72
2022-09-02T10:20:16.535Z,33.53
2022-09-02T10:21:16.637Z,32.97
2022-09-02T10:22:16.436Z,30.61
2022-09-02T10:23:16.411Z,28.52
2022-09-02T10:24:16.401Z,30.15
2022-09-02T10:25:16.459Z,31.87
2022-09-02T10:26:16.431Z,32.92
2022-09-02T10:27:16.608Z,35.17
2022-09-02T10:28:16.363Z,36.48
2022-09-02T10:29:16.347Z,35.99
2022-09-02T10:30:16.343Z,37.01
2022-09-02T10:31:16.834Z,38.20
2022-09-02T10:32:16.320Z,37.82
2022-09-02T10:33:16.309Z,37.17
2022-09-02T10:34:16.298Z,35.35
2022-09-02T10:35:16.305Z,33.72
2022-09-02T10:36:20.835Z,32.92
2022-09-02T10:38:26.699Z,30.44
2022-09-02T10:39:26.667Z,32.64
2022-09-02T10:40:29.280Z,32.69
2022-09-02T10:41:26.688Z,32.40
2022-09-02T10:42:26.639Z,33.08
2022-09-02T10:43:26.632Z,33.22
2022-09-02T10:44:26.619Z,34.63
2022-09-02T10:45:26.679Z,33.97
2022-09-02T10:46:26.639Z,35.77
2022-09-02T10:47:29.375Z,36.29
2022-09-02T10:48:26.598Z,35.60
2022-09-02T10:49:26.586Z,35.24
2022-09-02T10:50:26.603Z,36.47
2022-09-02T10:51:26.556Z,37.48
2022-09-02T10:52:26.588Z,38.59
2022-09-02T10:53:26.537Z,38.80
2022-09-02T10:54:26.547Z,38.23
2022-09-02T10:55:26.502Z,36.29
2022-09-02T10:56:26.587Z,34.06
2022-09-02T10:57:26.482Z,33.46
2022-09-02T10:58:26.492Z,33.28
2022-09-02T10:59:26.463Z,34.00
2022-09-02T11:00:26.479Z,35.43
2022-09-02T11:01:26.476Z,35.75
2022-09-02T11:02:26.432Z,36.47
2022-09-02T11:03:26.905Z,37.63
2022-09-02T11:04:26.405Z,38.36
2022-09-02T11:05:26.397Z,38.76
2022-09-02T11:06:35.398Z,39.29
2022-09-02T11:07:27.371Z,39.79
2022-09-02T11:08:31.373Z,39.49
2022-09-02T11:09:27.368Z,40.17
2022-09-02T11:10:26.338Z,39.87
2022-09-02T11:11:26.324Z,39.57
2022-09-02T11:12:26.315Z,40.05
2022-09-02T11:13:26.330Z,39.34
2022-09-02T11:14:26.306Z,37.76
2022-09-02T11:15:26.283Z,36.36
2022-09-02T11:16:26.460Z,34.28
2022-09-02T11:17:26.284Z,31.77
2022-09-02T11:18:26.663Z,31.26
2022-09-02T11:19:26.261Z,31.16
2022-09-02T11:20:26.241Z,30.64
2022-09-02T11:21:26.225Z,29.74
2022-09-02T11:22:27.636Z,30.30
2022-09-02T11:23:27.442Z,29.50
2022-09-02T11:24:26.192Z,29.94
2022-09-02T11:25:26.193Z,31.16
2022-09-02T11:26:26.225Z,31.47
2022-09-02T11:27:41.503Z,32.51
2022-09-02T11:28:27.162Z,33.33
2022-09-02T11:29:26.139Z,33.54
2022-09-02T11:30:26.155Z,34.56
2022-09-02T11:31:26.115Z,34.15
2022-09-02T11:32:26.189Z,33.43
2022-09-02T11:33:26.289Z,33.00
2022-09-02T11:34:26.087Z,32.09
2022-09-02T11:35:26.080Z,30.80
2022-09-02T11:36:26.071Z,30.49
2022-09-02T11:37:26.113Z,30.64
2022-09-02T11:38:26.045Z,30.80
2022-09-02T11:39:36.415Z,29.46
2022-09-02T11:40:34.985Z,30.49
2022-09-02T11:41:36.700Z,30.62
2022-09-02T11:42:27.014Z,30.58
2022-09-02T11:43:25.990Z,30.44
2022-09-02T11:44:28.197Z,32.50
2022-09-02T11:45:26.101Z,34.43
2022-09-02T11:46:26.090Z,35.12
2022-09-02T11:47:25.952Z,35.42
2022-09-02T11:48:25.943Z,35.70
2022-09-02T11:49:26.759Z,35.72
2022-09-02T11:50:25.929Z,35.53
2022-09-02T11:51:25.947Z,36.43
2022-09-02T11:52:25.903Z,35.73
2022-09-02T11:53:27.592Z,36.11
2022-09-02T11:54:25.879Z,36.39
2022-09-02T11:55:25.865Z,36.98
2022-09-02T11:56:25.859Z,37.18
2022-09-02T11:57:25.866Z,36.98
2022-09-02T11:58:25.839Z,37.28
2022-09-02T11:59:25.823Z,37.28
2022-09-02T12:00:25.841Z,36.19
2022-09-02T12:01:26.093Z,36.44
2022-09-02T12:02:25.798Z,37.77
2022-09-02T12:03:43.028Z,37.87
2022-09-02T12:04:59.135Z,37.77
2022-09-02T12:05:26.885Z,37.96
2022-09-02T12:06:25.946Z,37.27
2022-09-02T12:07:26.921Z,37.98
2022-09-02T12:08:26.914Z,38.00
2022-09-02T12:09:25.718Z,39.21
2022-09-02T12:10:25.728Z,39.51
2022-09-02T12:11:25.699Z,39.01
2022-09-02T12:12:25.689Z,39.07
2022-09-02T12:13:25.681Z,37.24
2022-09-02T12:14:25.673Z,36.88
2022-09-02T12:15:25.667Z,35.47
2022-09-02T12:16:25.716Z,35.12
2022-09-02T12:17:25.635Z,34.20
2022-09-02T12:18:25.774Z,33.79
2022-09-02T12:19:25.610Z,31.00
2022-09-02T12:20:25.622Z,31.10
2022-09-02T12:21:25.647Z,31.59
2022-09-02T12:22:25.582Z,31.39
2022-09-02T12:23:25.569Z,31.88
2022-09-02T12:24:25.565Z,31.52
2022-09-02T12:25:26.694Z,32.62
2022-09-02T12:26:25.900Z,32.84
2022-09-02T12:27:25.531Z,32.64
2022-09-02T12:28:26.083Z,33.03
2022-09-02T12:29:25.550Z,33.03
2022-09-02T12:30:25.503Z,33.62
2022-09-02T12:31:25.540Z,33.31
2022-09-02T12:32:25.479Z,33.84
2022-09-02T12:33:25.485Z,35.05
2022-09-02T12:34:25.465Z,35.17
2022-09-02T12:35:25.456Z,36.67
2022-09-02T12:36:25.509Z,36.59
2022-09-02T12:37:25.428Z,36.98
2022-09-02T12:38:25.451Z,37.20
2022-09-02T12:39:25.418Z,37.30
2022-09-02T12:40:25.452Z,36.82
2022-09-02T12:41:26.382Z,37.32
2022-09-02T12:42:25.430Z,36.62
2022-09-02T12:43:25.384Z,36.72
2022-09-02T12:44:25.359Z,35.91
2022-09-02T12:45:28.816Z,36.92
2022-09-02T12:46:25.399Z,36.62
2022-09-02T12:47:25.362Z,36.90
2022-09-02T12:48:30.290Z,35.89
2022-09-02T12:49:26.385Z,36.47
2022-09-02T12:50:25.299Z,35.96
2022-09-02T12:51:25.272Z,35.05
2022-09-02T12:52:30.796Z,34.34
2022-09-02T12:53:25.374Z,33.25